Time;durP1;ratioP1;P1;durP2;ratioP2;P2;SDS_P1;SDS_P2;PMS_P1;PMS_P2;Temp;Humidity;BMP_temperature;BMP_pressure;BME280_temperature;BME280_humidity;BME280_pressure;Samples;Min_cycle;Max_cycle;Signal;HPM_P1;HPM_P2
2022/09/03 00:00:15;;;;;;;19.35;10.35;;;;;;;11.58;64.63;100820.84;1625409;87;21078;-64
2022/09/03 00:02:48;;;;;;;17.75;9.70;;;;;;;11.57;65.61;100824.83;1653633;86;21073;-63
2022/09/03 00:05:35;;;;;;;19.25;10.78;;;;;;;11.52;65.42;100819.69;1646055;87;21319;-63
2022/09/03 00:08:19;;;;;;;19.45;10.60;;;;;;;11.46;65.42;100812.84;1639302;86;21587;-63
2022/09/03 00:11:05;;;;;;;21.80;10.93;;;;;;;11.39;65.48;100819.20;1639238;87;21039;-66
2022/09/03 00:13:53;;;;;;;21.82;10.23;;;;;;;11.38;65.95;100820.56;1639368;87;21076;-63
2022/09/03 00:16:22;;;;;;;20.82;10.82;;;;;;;11.31;66.64;100823.83;1639265;87;21063;-64
2022/09/03 00:18:53;;;;;;;19.98;10.18;;;;;;;11.29;66.58;100825.64;1639223;87;22214;-64
2022/09/03 00:21:43;;;;;;;19.65;11.20;;;;;;;11.24;66.45;100819.64;1639574;87;21546;-64
2022/09/03 00:24:13;;;;;;;18.17;9.70;;;;;;;11.23;66.68;100823.20;1652210;86;21601;-63
2022/09/03 00:26:44;;;;;;;18.32;10.05;;;;;;;11.22;66.84;100824.09;1653797;86;21255;-64
2022/09/03 00:29:26;;;;;;;17.37;9.78;;;;;;;11.22;67.29;100821.45;1609582;88;21157;-64
2022/09/03 00:31:57;;;;;;;18.57;9.65;;;;;;;11.21;67.29;100820.59;1653889;86;21197;-64
2022/09/03 00:34:35;;;;;;;20.52;10.75;;;;;;;11.17;67.23;100819.41;1646023;87;21057;-64
2022/09/03 00:37:02;;;;;;;21.27;10.20;;;;;;;11.15;67.32;100814.63;1639552;87;21082;-63
2022/09/03 00:39:29;;;;;;;21.40;11.08;;;;;;;11.15;67.83;100819.91;1639072;87;21074;-64
2022/09/03 00:42:34;;;;;;;20.62;10.48;;;;;;;11.15;68.06;100819.91;1639249;87;21095;-64
2022/09/03 00:45:27;;;;;;;19.95;11.28;;;;;;;11.15;67.85;100823.86;1624076;87;21280;-64
2022/09/03 00:48:19;;;;;;;20.30;10.45;;;;;;;11.12;67.68;100821.72;1638748;86;21171;-63
2022/09/03 00:51:17;;;;;;;19.92;10.30;;;;;;;11.13;67.64;100827.42;1639377;87;21540;-63
2022/09/03 00:54:01;;;;;;;20.32;10.03;;;;;;;11.11;67.76;100822.64;1635571;87;21566;-63
2022/09/03 00:58:50;;;;;;;18.60;10.00;;;;;;;11.16;68.35;100818.98;1796545;79;22670;-63
2022/09/03 01:01:25;;;;;;;19.55;9.95;;;;;;;11.12;68.32;100820.41;1723068;81;21049;-63
2022/09/03 01:04:07;;;;;;;21.05;10.90;;;;;;;11.12;67.84;100823.50;1756146;81;21130;-63
2022/09/03 01:07:11;;;;;;;19.20;9.70;;;;;;;11.12;67.99;100829.63;1756835;81;21037;-64
2022/09/03 01:10:05;;;;;;;16.60;9.18;;;;;;;11.11;67.85;100824.38;1756272;81;20969;-63
2022/09/03 01:12:47;;;;;;;20.30;9.95;;;;;;;11.12;68.06;100825.67;1722897;83;22278;-63
2022/09/03 01:15:31;;;;;;;19.35;10.98;;;;;;;11.13;67.94;100827.42;1723105;83;21478;-63
2022/09/03 01:18:33;;;;;;;21.33;9.93;;;;;;;11.12;68.22;100826.98;1708690;84;21163;-65
2022/09/03 01:21:28;;;;;;;23.73;10.23;;;;;;;11.13;67.93;100829.16;1709308;84;20950;-63
2022/09/03 01:24:18;;;;;;;21.52;9.63;;;;;;;11.13;68.56;100820.83;1709149;84;21577;-63
2022/09/03 01:26:56;;;;;;;19.40;9.63;;;;;;;11.13;68.96;100816.87;1720536;83;21053;-64
2022/09/03 01:30:06;;;;;;;21.90;9.48;;;;;;;11.13;68.63;100818.19;1719733;83;21663;-62
2022/09/03 01:33:03;;;;;;;20.97;9.75;;;;;;;11.15;68.79;100822.55;1720440;83;21905;-64
2022/09/03 01:35:50;;;;;;;21.93;9.78;;;;;;;11.16;68.57;100820.30;1720252;83;21117;-63
2022/09/03 01:38:44;;;;;;;18.30;8.93;;;;;;;11.16;68.52;100817.66;1720150;83;21037;-65
2022/09/03 01:44:40;;;;;;;18.65;9.53;;;;;;;11.16;68.36;100821.19;1691487;84;21049;-63
2022/09/03 01:47:31;;;;;;;20.57;10.43;;;;;;;11.16;68.53;100820.30;1691574;84;21541;-63
2022/09/03 01:50:33;;;;;;;20.50;10.28;;;;;;;11.18;68.32;100825.08;1637201;84;21042;-62
2022/09/03 01:53:27;;;;;;;18.65;9.88;;;;;;;11.17;68.44;100822.05;1690992;84;21022;-64
2022/09/03 01:56:50;;;;;;;18.10;9.73;;;;;;;11.17;68.45;100828.64;1682240;84;21124;-63
2022/09/03 01:59:28;;;;;;;18.60;10.13;;;;;;;11.16;68.53;100824.25;1696460;84;21108;-64
2022/09/03 02:02:22;;;;;;;17.10;9.73;;;;;;;11.17;68.48;100820.73;1678224;85;21677;-64
2022/09/03 02:05:08;;;;;;;17.80;9.60;;;;;;;11.16;68.17;100826.89;1691153;84;21117;-64
2022/09/03 02:07:42;;;;;;;22.85;9.30;;;;;;;11.20;68.12;100825.91;1691403;84;21046;-62
2022/09/03 02:10:12;;;;;;;18.30;9.13;;;;;;;11.20;68.36;100825.91;1690924;84;21046;-63
2022/09/03 02:12:45;;;;;;;22.45;9.75;;;;;;;11.21;68.43;100828.97;1691035;84;21089;-63
2022/09/03 02:15:16;;;;;;;17.92;9.20;;;;;;;11.21;68.74;100831.61;1690602;84;21249;-63
2022/09/03 02:17:44;;;;;;;18.92;8.85;;;;;;;11.22;69.14;100829.36;1690896;84;21084;-63
2022/09/03 02:20:15;;;;;;;16.32;9.00;;;;;;;11.21;69.97;100826.33;1690412;84;21068;-64
2022/09/03 02:22:42;;;;;;;19.45;9.73;;;;;;;11.21;69.25;100828.97;1690941;84;21093;-64
2022/09/03 02:25:09;;;;;;;15.15;8.73;;;;;;;11.21;69.03;100828.97;1690892;84;21069;-64
2022/09/03 02:27:38;;;;;;;18.10;9.50;;;;;;;11.20;69.34;100833.35;1690966;84;21210;-64
2022/09/03 02:30:07;;;;;;;17.00;8.65;;;;;;;11.20;69.27;100831.17;1690861;84;21081;-64
2022/09/03 02:32:33;;;;;;;18.45;8.93;;;;;;;11.19;69.02;100832.10;1691040;84;21120;-63
2022/09/03 02:35:00;;;;;;;17.65;8.70;;;;;;;11.17;69.03;100826.00;1691001;84;21026;-63
2022/09/03 02:37:27;;;;;;;15.23;8.50;;;;;;;11.16;69.11;100832.16;1690774;84;21073;-64
2022/09/03 02:39:54;;;;;;;15.80;8.58;;;;;;;11.16;69.24;100826.89;1690684;84;21077;-63
2022/09/03 02:42:21;;;;;;;16.20;8.83;;;;;;;11.17;69.36;100828.64;1690728;84;21105;-64
2022/09/03 02:44:52;;;;;;;17.35;8.48;;;;;;;11.16;69.36;100825.14;1690567;84;21097;-64
2022/09/03 02:47:19;;;;;;;15.25;8.43;;;;;;;11.15;69.20;100826.03;1690632;84;21116;-63
2022/09/03 02:49:49;;;;;;;13.25;7.20;;;;;;;11.15;69.68;100827.35;1690635;84;21076;-64
2022/09/03 02:52:16;;;;;;;15.70;8.33;;;;;;;11.14;69.83;100826.95;1690908;84;21908;-63
2022/09/03 02:54:44;;;;;;;14.93;8.58;;;;;;;11.15;69.44;100825.18;1692380;84;21032;-64
2022/09/03 02:57:14;;;;;;;16.42;8.10;;;;;;;11.16;69.94;100832.16;1692153;84;21123;-64
2022/09/03 02:59:43;;;;;;;15.75;7.90;;;;;;;11.16;69.57;100833.05;1683704;85;21135;-65
2022/09/03 03:02:11;;;;;;;15.95;8.53;;;;;;;11.18;69.55;100831.67;1654938;85;21606;-63
2022/09/03 03:04:38;;;;;;;15.15;8.10;;;;;;;11.17;69.68;100834.77;1650728;86;21862;-64
2022/09/03 03:07:06;;;;;;;19.15;8.20;;;;;;;11.18;69.74;100832.98;1650812;86;21110;-64
2022/09/03 03:09:32;;;;;;;19.10;8.65;;;;;;;11.20;69.31;100837.77;1684366;84;21479;-64
2022/09/03 03:12:00;;;;;;;18.60;7.70;;;;;;;11.20;70.13;100834.67;1684465;85;21054;-64
2022/09/03 03:14:27;;;;;;;15.13;7.83;;;;;;;11.22;70.10;100830.22;1684717;85;21038;-64
2022/09/03 03:16:54;;;;;;;16.85;9.10;;;;;;;11.23;69.78;100826.70;1684583;84;21572;-67
2022/09/03 03:19:21;;;;;;;18.12;8.40;;;;;;;11.24;69.77;100832.83;1684271;84;21040;-63
2022/09/03 03:21:47;;;;;;;14.20;8.00;;;;;;;11.24;70.25;100832.36;1684549;84;21586;-62
2022/09/03 03:24:14;;;;;;;16.62;7.87;;;;;;;11.25;70.86;100842.45;1684651;85;21578;-64
2022/09/03 03:26:41;;;;;;;15.38;7.28;;;;;;;11.27;70.03;100839.32;1684536;84;21590;-63
2022/09/03 03:29:08;;;;;;;16.07;7.53;;;;;;;11.26;70.26;100847.69;1684340;85;21947;-64
2022/09/03 03:31:36;;;;;;;15.58;8.53;;;;;;;11.28;70.14;100846.34;1652353;85;21010;-64
2022/09/03 03:34:03;;;;;;;18.37;8.28;;;;;;;11.27;69.94;100844.16;1684355;85;21089;-63
2022/09/03 03:36:32;;;;;;;17.07;8.03;;;;;;;11.27;70.22;100852.50;1684468;85;21057;-65
2022/09/03 03:38:59;;;;;;;15.43;7.50;;;;;;;11.30;71.27;100851.12;1684345;85;21534;-64
2022/09/03 03:41:30;;;;;;;14.15;7.78;;;;;;;11.31;71.17;100853.69;1684582;85;21154;-64
2022/09/03 03:44:00;;;;;;;;;;;;;;;11.32;70.78;100848.84;1686804;85;21093;-64
2022/09/03 03:46:38;;;;;;;18.67;8.65;;;;;;;11.33;70.81;100841.33;1684811;85;20215;-64
2022/09/03 03:49:05;;;;;;;16.75;7.90;;;;;;;11.35;70.93;100847.89;1684404;84;21402;-65
2022/09/03 03:51:33;;;;;;;16.90;7.70;;;;;;;11.37;70.34;100852.67;1684416;85;21068;-65
2022/09/03 03:54:00;;;;;;;13.10;7.37;;;;;;;11.39;69.87;100850.86;1693926;83;21187;-64
2022/09/03 03:56:27;;;;;;;13.72;7.50;;;;;;;11.42;69.70;100855.17;1717857;83;21061;-64
2022/09/03 03:58:55;;;;;;;17.82;7.90;;;;;;;11.43;69.38;100854.25;1717738;83;21033;-63
2022/09/03 04:01:24;;;;;;;21.40;8.43;;;;;;;11.44;69.37;100859.49;1718025;83;21545;-64
2022/09/03 04:03:53;;;;;;;15.60;8.65;;;;;;;11.45;69.41;100853.75;1718064;83;21122;-64
2022/09/03 04:06:20;;;;;;;15.85;7.95;;;;;;;11.45;69.49;100855.93;1718264;83;21768;-65
2022/09/03 04:08:49;;;;;;;17.15;7.75;;;;;;;11.48;69.11;100861.14;1718326;83;21076;-64
2022/09/03 04:11:20;;;;;;;16.62;8.48;;;;;;;11.50;68.95;100858.00;1718171;83;21096;-65
2022/09/03 04:13:48;;;;;;;14.13;7.92;;;;;;;11.54;69.39;100854.34;1718340;83;21045;-64
2022/09/03 04:16:22;;;;;;;15.40;7.72;;;;;;;11.60;69.41;100855.09;1718308;83;21020;-64
2022/09/03 04:18:50;;;;;;;17.17;7.45;;;;;;;11.67;69.81;100864.55;1718143;83;21552;-63
2022/09/03 04:21:21;;;;;;;19.42;7.90;;;;;;;11.74;68.22;100867.41;1689868;83;21041;-65
2022/09/03 04:23:49;;;;;;;16.60;8.98;;;;;;;11.80;67.57;100864.59;1718277;83;21065;-65
2022/09/03 04:26:19;;;;;;;16.15;7.87;;;;;;;11.86;67.57;100864.39;1718707;83;21504;-64
2022/09/03 04:28:46;;;;;;;18.95;8.80;;;;;;;11.92;68.29;100869.53;1718986;83;21076;-64
2022/09/03 04:31:16;;;;;;;19.57;8.20;;;;;;;11.99;66.40;100868.03;1718540;83;21303;-63
2022/09/03 04:33:43;;;;;;;17.95;8.48;;;;;;;12.05;65.98;100861.21;1718503;83;21033;-64
2022/09/03 04:36:12;;;;;;;15.72;8.10;;;;;;;12.11;66.20;100864.98;1718572;83;21036;-64
2022/09/03 04:38:40;;;;;;;15.88;7.47;;;;;;;12.18;65.45;100867.84;1718473;83;21528;-63
2022/09/03 04:41:12;;;;;;;22.05;9.00;;;;;;;12.22;64.38;100869.48;1718967;83;20982;-64
2022/09/03 04:43:44;;;;;;;20.45;8.10;;;;;;;12.25;64.20;100864.09;1717739;83;21232;-64
2022/09/03 04:46:10;;;;;;;15.88;8.28;;;;;;;12.30;63.78;100866.11;1717945;83;21077;-64
2022/09/03 04:48:37;;;;;;;13.18;6.97;;;;;;;12.33;63.64;100860.75;1718026;83;21548;-64
2022/09/03 04:51:14;;;;;;;15.23;7.20;;;;;;;12.39;63.61;100864.50;1719120;83;21137;-63
2022/09/03 04:53:44;;;;;;;23.83;7.70;;;;;;;12.46;63.86;100865.16;1719235;83;21100;-66
2022/09/03 04:56:17;;;;;;;20.17;6.80;;;;;;;12.53;63.36;100865.83;1719046;83;21147;-65
2022/09/03 04:58:44;;;;;;;16.10;6.83;;;;;;;12.59;63.32;100865.62;1715291;82;21466;-65
2022/09/03 05:01:17;;;;;;;25.43;8.20;;;;;;;12.63;62.16;100865.05;1713357;82;21091;-64
2022/09/03 05:03:43;;;;;;;15.78;6.75;;;;;;;12.65;62.40;100864.55;1713386;83;21083;-65
2022/09/03 05:06:11;;;;;;;14.53;7.33;;;;;;;12.65;62.14;100860.11;1713410;83;21102;-65
2022/09/03 05:08:37;;;;;;;15.75;7.95;;;;;;;12.67;61.66;100867.53;1713512;83;21151;-66
2022/09/03 05:11:05;;;;;;;20.48;8.45;;;;;;;12.70;61.49;100868.78;1713833;83;21044;-65
2022/09/03 05:13:33;;;;;;;12.75;7.20;;;;;;;12.70;61.63;100866.13;1713378;82;21087;-64
2022/09/03 05:16:01;;;;;;;11.85;5.80;;;;;;;12.74;61.62;100875.66;1713071;82;21501;-64
2022/09/03 05:18:28;;;;;;;12.63;6.60;;;;;;;12.76;61.76;100879.12;1712987;83;21082;-66
2022/09/03 05:21:00;;;;;;;14.45;7.42;;;;;;;12.80;62.21;100879.42;1712891;82;21567;-64
2022/09/03 05:23:27;;;;;;;;;;;;;;;12.83;62.51;100881.09;1715382;83;20993;-64
2022/09/03 05:25:59;;;;;;;15.43;7.40;;;;;;;12.85;63.02;100881.91;1713043;83;20154;-65
2022/09/03 05:28:27;;;;;;;17.55;7.65;;;;;;;12.82;64.96;100883.81;1713118;83;21118;-65
2022/09/03 05:31:09;;;;;;;19.73;7.80;;;;;;;12.75;66.03;100881.37;1712897;82;21036;-64
2022/09/03 05:33:38;;;;;;;18.17;7.92;;;;;;;12.68;65.82;100878.53;1712880;83;21140;-65
2022/09/03 05:36:10;;;;;;;15.45;7.80;;;;;;;12.67;65.56;100871.50;1713169;82;21016;-65
2022/09/03 05:38:38;;;;;;;16.00;7.30;;;;;;;12.71;65.49;100883.70;1713253;83;21462;-65
2022/09/03 05:41:07;;;;;;;17.85;7.20;;;;;;;12.73;65.86;100892.45;1712926;83;21084;-65
2022/09/03 05:43:34;;;;;;;13.25;7.22;;;;;;;12.65;64.96;100890.97;1712863;83;21021;-64
2022/09/03 05:46:06;;;;;;;14.93;6.90;;;;;;;12.62;65.82;100887.97;1713226;83;21563;-64
2022/09/03 05:48:34;;;;;;;11.63;6.30;;;;;;;12.65;65.23;100886.54;1712771;83;21067;-64
2022/09/03 05:51:10;;;;;;;17.70;7.78;;;;;;;12.75;65.12;100893.26;1713335;82;21067;-65
2022/09/03 05:53:39;;;;;;;21.97;7.80;;;;;;;12.86;64.64;100889.38;1713069;83;21160;-65
2022/09/03 05:56:12;;;;;;;19.90;7.83;;;;;;;12.92;64.17;100878.59;1713407;82;21580;-65
2022/09/03 05:58:42;;;;;;;18.12;7.55;;;;;;;13.03;63.89;100879.55;1713208;83;21574;-65
2022/09/03 06:01:32;;;;;;;15.68;7.85;;;;;;;13.16;64.68;100881.70;1713189;83;21179;-64
2022/09/03 06:04:06;;;;;;;14.18;7.60;;;;;;;13.30;63.99;100879.06;1712929;82;21539;-65
2022/09/03 06:06:35;;;;;;;14.85;8.20;;;;;;;13.40;64.21;100872.50;1713058;82;21049;-65
2022/09/03 06:09:07;;;;;;;18.15;7.25;;;;;;;13.51;63.67;100874.30;1713114;83;21042;-64
2022/09/03 06:11:35;;;;;;;18.10;7.42;;;;;;;13.61;62.24;100874.34;1713363;82;21585;-65
2022/09/03 06:14:05;;;;;;;26.02;7.87;;;;;;;13.69;61.28;100878.48;1712964;82;21104;-65
2022/09/03 06:16:35;;;;;;;13.15;7.55;;;;;;;13.73;61.02;100876.98;1713489;82;21085;-66
2022/09/03 06:19:06;;;;;;;14.90;6.67;;;;;;;13.79;60.34;100878.55;1713004;82;21109;-65
2022/09/03 06:21:31;;;;;;;17.23;6.60;;;;;;;13.83;60.42;100868.24;1713715;83;21084;-65
2022/09/03 06:24:00;;;;;;;15.63;6.80;;;;;;;13.88;60.78;100864.95;1712523;82;21018;-66
2022/09/03 06:26:27;;;;;;;17.42;6.70;;;;;;;14.00;60.24;100860.48;1713010;83;21027;-67
2022/09/03 06:28:55;;;;;;;20.32;7.58;;;;;;;14.16;60.58;100863.39;1713095;83;21041;-67
2022/09/03 06:31:22;;;;;;;15.63;6.08;;;;;;;14.34;60.07;100874.18;1712990;83;21037;-65
2022/09/03 06:33:49;;;;;;;15.05;6.70;;;;;;;14.48;58.58;100864.72;1712990;83;20994;-66
2022/09/03 06:36:17;;;;;;;13.75;6.75;;;;;;;14.58;58.01;100859.06;1713306;83;21276;-65
2022/09/03 06:38:44;;;;;;;12.07;6.05;;;;;;;14.63;58.75;100857.97;1713106;83;21720;-64
2022/09/03 06:41:23;;;;;;;11.35;6.58;;;;;;;14.74;56.78;100857.48;1712939;83;21645;-64
2022/09/03 06:43:45;;;;;;;11.75;6.17;;;;;;;14.85;56.23;100855.24;1711465;82;21565;-65
2022/09/03 06:46:15;;;;;;;15.90;7.00;;;;;;;14.99;56.22;100867.05;1713156;82;22072;-65
2022/09/03 06:48:41;;;;;;;14.30;6.40;;;;;;;15.15;56.78;100864.59;1713348;83;21133;-65
2022/09/03 06:51:11;;;;;;;32.42;7.50;;;;;;;15.34;54.63;100865.95;1712953;82;21060;-65
2022/09/03 06:53:40;;;;;;;17.95;7.28;;;;;;;15.49;54.81;100869.23;1713207;82;21053;-66
2022/09/03 06:56:10;;;;;;;12.93;5.35;;;;;;;15.58;53.79;100871.95;1712881;83;21059;-65
2022/09/03 06:58:42;;;;;;;16.67;6.28;;;;;;;15.63;52.23;100876.09;1715070;82;21098;-64
2022/09/03 07:01:16;;;;;;;16.00;6.05;;;;;;;15.71;52.35;100870.45;1720472;83;22057;-65
2022/09/03 07:03:44;;;;;;;11.73;5.50;;;;;;;15.80;51.98;100866.04;1720559;83;21618;-64
2022/09/03 07:06:13;;;;;;;15.70;5.80;;;;;;;16.01;52.29;100868.17;1720550;83;21095;-66
2022/09/03 07:08:41;;;;;;;15.75;5.17;;;;;;;16.30;50.72;100866.73;1721069;83;21126;-65
2022/09/03 07:11:15;;;;;;;13.65;5.62;;;;;;;16.47;49.38;100875.23;1720644;83;21028;-64
2022/09/03 07:13:46;;;;;;;11.75;4.95;;;;;;;16.63;49.18;100869.12;1720740;82;21498;-65
2022/09/03 07:16:18;;;;;;;9.10;5.25;;;;;;;16.79;49.46;100864.77;1720871;83;21096;-65
2022/09/03 07:18:47;;;;;;;11.63;5.05;;;;;;;17.05;48.60;100870.58;1720593;82;21042;-64
2022/09/03 07:21:16;;;;;;;7.75;4.60;;;;;;;17.16;47.92;100870.84;1720793;83;21091;-65
2022/09/03 07:23:43;;;;;;;17.73;5.67;;;;;;;17.32;48.44;100865.13;1720560;83;21063;-65
2022/09/03 07:26:12;;;;;;;10.95;5.83;;;;;;;17.67;47.34;100862.34;1720648;83;21299;-64
2022/09/03 07:28:40;;;;;;;10.95;4.80;;;;;;;17.95;46.17;100855.52;1720490;83;21051;-65
2022/09/03 07:31:26;;;;;;;9.75;5.03;;;;;;;18.12;45.34;100854.07;1720520;83;21087;-65
2022/09/03 07:34:05;;;;;;;12.85;5.42;;;;;;;18.21;45.48;100858.88;1720554;83;21544;-65
2022/09/03 07:36:38;;;;;;;11.93;5.00;;;;;;;18.27;45.03;100860.80;1720475;82;21125;-66
2022/09/03 07:39:05;;;;;;;9.55;4.90;;;;;;;18.22;44.71;100865.06;1720801;83;21082;-65
2022/09/03 07:41:32;;;;;;;9.98;4.75;;;;;;;18.12;44.70;100868.73;1720950;83;21114;-65
2022/09/03 07:44:04;;;;;;;16.80;5.33;;;;;;;17.98;45.42;100871.32;1720672;83;21035;-64
2022/09/03 07:46:28;;;;;;;22.85;6.15;;;;;;;17.84;45.67;100869.91;1720126;83;21531;-66
2022/09/03 07:48:56;;;;;;;15.03;6.17;;;;;;;17.81;46.28;100868.28;1720582;83;21063;-64
2022/09/03 07:51:28;;;;;;;16.67;6.05;;;;;;;17.80;46.82;100864.70;1720607;83;21116;-65
2022/09/03 07:53:57;;;;;;;11.95;6.20;;;;;;;17.80;46.27;100867.84;1713578;83;21567;-65
2022/09/03 07:56:25;;;;;;;12.82;5.65;;;;;;;17.76;47.12;100867.17;1691640;84;21110;-65
2022/09/03 07:58:54;;;;;;;20.23;5.78;;;;;;;17.85;46.45;100867.61;1695968;82;21581;-65
2022/09/03 08:01:22;;;;;;;19.48;6.78;;;;;;;17.97;46.44;100869.62;1712861;82;21054;-65
2022/09/03 08:03:50;;;;;;;17.48;6.42;;;;;;;18.10;46.53;100870.62;1712904;82;21101;-65
2022/09/03 08:06:20;;;;;;;15.32;6.83;;;;;;;18.22;46.89;100859.28;1712785;83;21030;-65
2022/09/03 08:08:47;;;;;;;16.70;7.07;;;;;;;18.46;47.19;100865.47;1713322;82;21116;-67
2022/09/03 08:11:16;;;;;;;10.25;5.72;;;;;;;18.84;46.77;100859.24;1712755;83;21057;-66
2022/09/03 08:14:01;;;;;;;10.28;5.80;;;;;;;19.33;45.42;100855.87;1713095;83;21120;-66
2022/09/03 08:16:31;;;;;;;12.63;5.70;;;;;;;19.77;44.56;100862.44;1678118;85;21262;-66
2022/09/03 08:18:58;;;;;;;12.73;5.67;;;;;;;20.24;43.96;100861.16;1678431;85;20986;-65
2022/09/03 08:21:25;;;;;;;10.32;5.25;;;;;;;20.66;41.63;100860.64;1678244;85;21104;-65
2022/09/03 08:24:01;;;;;;;10.88;4.72;;;;;;;20.81;41.42;100861.89;1678325;85;21529;-66
2022/09/03 08:26:23;;;;;;;13.08;4.47;;;;;;;20.86;41.01;100859.75;1677930;85;26484;-65
2022/09/03 08:28:51;;;;;;;7.85;4.28;;;;;;;20.94;40.84;100848.89;1678303;85;21235;-65
2022/09/03 08:31:20;;;;;;;15.60;5.42;;;;;;;21.11;40.20;100854.41;1678194;85;21025;-65
2022/09/03 08:33:49;;;;;;;14.28;5.25;;;;;;;21.42;39.70;100861.68;1678384;85;21044;-65
2022/09/03 08:36:21;;;;;;;14.05;4.87;;;;;;;21.65;39.00;100859.16;1678245;85;22071;-65
2022/09/03 08:38:49;;;;;;;8.60;4.00;;;;;;;21.72;38.95;100856.43;1678412;85;21608;-64
2022/09/03 08:41:51;;;;;;;12.78;4.60;;;;;;;21.80;38.02;100860.73;1678681;85;21204;-66
2022/09/03 08:44:47;;;;;;;14.38;4.67;;;;;;;21.79;38.17;100855.02;1712669;83;21529;-66
2022/09/03 08:48:00;;;;;;;10.38;5.10;;;;;;;21.89;38.33;100860.06;1712915;83;21026;-64
2022/09/03 08:50:34;;;;;;;12.63;4.95;;;;;;;21.85;37.26;100853.21;1712699;82;21045;-66
2022/09/03 08:53:42;;;;;;;11.12;4.80;;;;;;;21.67;38.28;100843.82;1712877;83;21062;-65
2022/09/03 08:56:12;;;;;;;6.78;3.27;;;;;;;21.78;37.89;100841.22;1650788;86;21144;-65
2022/09/03 08:58:42;;;;;;;;;;;;;;;21.81;35.74;100836.12;1653234;86;21065;-66
2022/09/03 09:01:50;;;;;;;10.70;3.65;;;;;;;21.57;35.95;100831.09;1638238;87;20162;-65
2022/09/03 09:04:34;;;;;;;9.75;3.15;;;;;;;21.22;36.98;100830.05;1684317;85;21526;-66
2022/09/03 09:07:22;;;;;;;5.85;2.80;;;;;;;20.81;37.23;100824.41;1684302;84;21136;-66
2022/09/03 09:09:58;;;;;;;15.40;3.72;;;;;;;20.86;37.61;100820.93;1684365;85;21321;-66
2022/09/03 09:13:01;;;;;;;6.20;2.65;;;;;;;20.92;36.64;100821.86;1684444;85;21058;-65
2022/09/03 09:15:45;;;;;;;6.17;1.87;;;;;;;20.95;37.58;100817.62;1684229;85;21074;-65
2022/09/03 09:18:33;;;;;;;6.85;2.67;;;;;;;20.84;35.66;100817.50;1684369;85;21109;-64
2022/09/03 09:21:12;;;;;;;8.83;3.00;;;;;;;20.62;36.15;100816.80;1684500;84;21522;-65
2022/09/03 09:23:47;;;;;;;5.08;2.67;;;;;;;20.50;37.38;100813.11;1684355;85;21431;-65
2022/09/03 09:26:20;;;;;;;5.67;2.30;;;;;;;20.45;36.86;100816.55;1684505;85;21092;-63
2022/09/03 09:28:53;;;;;;;3.98;2.40;;;;;;;20.46;37.40;100820.47;1684227;85;21025;-65
2022/09/03 09:31:20;;;;;;;3.12;2.30;;;;;;;20.53;36.05;100814.23;1679048;83;21094;-65
2022/09/03 09:33:46;;;;;;;5.37;3.27;;;;;;;20.66;36.60;100805.78;1684222;84;21057;-65
2022/09/03 09:36:15;;;;;;;6.87;2.52;;;;;;;20.84;37.61;100805.45;1684212;84;21238;-65
2022/09/03 09:38:42;;;;;;;5.75;2.40;;;;;;;21.01;35.69;100810.50;1684272;84;21139;-65
2022/09/03 09:41:18;;;;;;;5.08;2.52;;;;;;;20.91;35.26;100812.09;1684629;85;21748;-64
2022/09/03 09:43:49;;;;;;;6.95;1.82;;;;;;;20.73;35.25;100812.91;1684464;84;21099;-65
2022/09/03 09:46:22;;;;;;;4.65;2.25;;;;;;;20.47;35.32;100817.30;1684698;85;21683;-64
2022/09/03 09:48:54;;;;;;;7.87;2.00;;;;;;;20.24;35.72;100818.84;1684292;84;21102;-65
2022/09/03 09:51:27;;;;;;;10.78;2.35;;;;;;;20.13;35.79;100816.91;1683112;85;21014;-64
2022/09/03 09:54:14;;;;;;;5.65;2.25;;;;;;;19.98;35.62;100812.56;1690953;83;21107;-67
2022/09/03 09:56:43;;;;;;;7.50;2.50;;;;;;;19.86;36.50;100814.22;1713076;82;21058;-65
2022/09/03 09:59:13;;;;;;;12.90;2.30;;;;;;;20.01;37.01;100821.70;1712679;82;21110;-65
2022/09/03 10:01:46;;;;;;;8.95;2.37;;;;;;;20.06;36.30;100828.94;1713095;83;21932;-65
2022/09/03 10:04:26;;;;;;;5.50;2.60;;;;;;;20.03;36.56;100829.15;1702977;83;21036;-67
2022/09/03 10:07:26;;;;;;;7.70;2.58;;;;;;;19.89;36.08;100824.70;1712931;82;21060;-63
2022/09/03 10:10:01;;;;;;;6.33;2.52;;;;;;;19.67;36.75;100826.55;1713007;83;21099;-64
2022/09/03 10:12:44;;;;;;;11.55;2.80;;;;;;;19.51;37.04;100828.00;1712930;82;21048;-64
2022/09/03 10:15:29;;;;;;;5.22;2.85;;;;;;;19.43;37.43;100821.79;1702560;83;21115;-65
2022/09/03 10:18:01;;;;;;;7.78;3.55;;;;;;;19.50;38.20;100813.77;1713118;82;21524;-64
2022/09/03 10:20:54;;;;;;;10.23;2.70;;;;;;;19.52;37.60;100823.03;1713064;83;21176;-66
2022/09/03 10:23:28;;;;;;;5.72;3.00;;;;;;;19.48;37.28;100823.69;1713030;82;21107;-65
2022/09/03 10:26:17;;;;;;;4.83;2.83;;;;;;;19.43;37.24;100816.93;1713093;83;21055;-65
2022/09/03 10:28:45;;;;;;;7.35;3.10;;;;;;;19.47;37.33;100818.45;1712714;82;21446;-64
2022/09/03 10:31:49;;;;;;;5.53;2.85;;;;;;;19.50;37.24;100814.25;1712857;83;21080;-66
2022/09/03 10:34:46;;;;;;;9.08;3.00;;;;;;;19.53;37.94;100812.70;1713126;83;21056;-66
2022/09/03 10:37:30;;;;;;;7.40;3.25;;;;;;;19.52;37.47;100804.81;1712749;82;21039;-65
2022/09/03 10:40:20;;;;;;;5.45;3.00;;;;;;;19.64;37.98;100805.35;1712588;82;22045;-66
2022/09/03 10:43:11;;;;;;;8.93;2.98;;;;;;;19.84;37.80;100803.62;1687451;83;21127;-66
2022/09/03 10:45:49;;;;;;;14.85;4.67;;;;;;;20.01;36.90;100805.66;1712797;83;21067;-65
2022/09/03 10:48:41;;;;;;;12.50;3.08;;;;;;;20.02;37.25;100800.71;1713167;83;22158;-65
2022/09/03 10:51:19;;;;;;;6.35;3.08;;;;;;;20.11;36.37;100805.45;1712896;83;21047;-68
2022/09/03 10:54:31;;;;;;;12.60;4.28;;;;;;;20.05;37.05;100803.17;1713341;82;20999;-66
2022/09/03 10:57:46;;;;;;;15.35;3.77;;;;;;;19.99;36.65;100798.22;1678434;85;21836;-66
2022/09/03 11:00:14;;;;;;;10.40;3.50;;;;;;;19.85;36.68;100796.45;1676661;85;21715;-66
2022/09/03 11:03:18;;;;;;;6.03;3.67;;;;;;;19.79;37.08;100799.06;1678313;85;21061;-66
2022/09/03 11:05:59;;;;;;;8.88;3.70;;;;;;;19.75;36.53;100792.19;1678041;85;21052;-67
2022/09/03 11:08:35;;;;;;;;;;;;;;;19.65;36.69;100795.91;1681298;85;21119;-67
2022/09/03 11:11:13;;;;;;;11.55;3.40;;;;;;;19.56;37.13;100791.64;1678576;85;21143;-66
2022/09/03 11:13:53;;;;;;;7.20;3.40;;;;;;;19.45;37.40;100798.52;1678380;85;21109;-66
2022/09/03 11:16:25;;;;;;;9.95;4.47;;;;;;;19.38;37.97;100793.19;1678757;85;21115;-64
2022/09/03 11:18:56;;;;;;;4.67;3.30;;;;;;;19.37;38.06;100792.81;1678580;85;21045;-65
2022/09/03 11:21:25;;;;;;;6.53;3.37;;;;;;;19.36;38.42;100783.55;1678446;85;21076;-64
2022/09/03 11:24:18;;;;;;;11.20;6.83;;;;;;;19.33;37.96;100783.27;1678486;85;21297;-66
2022/09/03 11:26:56;;;;;;;30.60;13.88;;;;;;;19.38;37.37;100782.50;1678394;85;21084;-65
2022/09/03 11:29:41;;;;;;;18.98;3.92;;;;;;;19.42;37.02;100777.34;1677854;85;21121;-64
2022/09/03 11:32:18;;;;;;;14.45;5.53;;;;;;;19.40;36.68;100775.25;1677905;85;21017;-65
2022/09/03 11:34:48;;;;;;;7.92;3.30;;;;;;;19.42;37.01;100776.02;1678385;85;21073;-65
2022/09/03 11:37:27;;;;;;;13.25;7.65;;;;;;;19.43;36.71;100766.18;1678803;85;21115;-64
2022/09/03 11:40:11;;;;;;;7.30;3.40;;;;;;;19.41;37.18;100758.73;1678248;85;21057;-66
2022/09/03 11:42:41;;;;;;;7.60;4.00;;;;;;;19.49;37.21;100759.97;1678382;85;21039;-65
2022/09/03 11:45:22;;;;;;;24.15;9.53;;;;;;;19.64;36.37;100771.95;1678534;85;21077;-64
2022/09/03 11:47:48;;;;;;;5.62;3.62;;;;;;;19.64;36.10;100774.14;1676870;85;21630;-65
2022/09/03 11:50:28;;;;;;;9.13;3.72;;;;;;;19.64;36.74;100769.28;1678290;85;21562;-65
2022/09/03 11:53:23;;;;;;;8.48;3.72;;;;;;;19.75;36.32;100771.30;1678323;85;21050;-65
2022/09/03 11:56:07;;;;;;;17.07;10.28;;;;;;;19.88;36.70;100765.05;1684374;84;21050;-66
2022/09/03 11:58:41;;;;;;;8.45;4.20;;;;;;;20.06;35.98;100766.98;1684248;85;21109;-65
2022/09/03 12:01:14;;;;;;;8.95;3.75;;;;;;;20.05;35.11;100757.72;1650891;85;21097;-66